aviador You're here:

GMFO Decoded Metar

OUJDA in MOROCCO
Report Time2017-11-23 22:00:00
UTC Time2017-11-23 22:23:46
Flight Rules vfr VFR
Wind210° at 04 kt
W.Decomp.*RWY 24: 3.5 kt HW 1.9 kt LCW
RWY 13: 0.6 kt HW 4.0 kt RCW
W.Rank210° ranks 8
Current wind is below 210° avg. (5.7)
Visibility9999 m
Phenomena:N/A
Clouds:N/A
Expected CloudBase > 5,600 ft AGL from Temp-Dew spread
CeilingNone
Temp08°C (ISA -4)
Dew Point-6°C (37% RH)
AAT3.9°C
QNH1023 hPa
Density Alt794 ft
Elevation1,542 ft
Report Wrong Elevation
Raw Report
GMFO 232200Z 21004KT CAVOK 08/M06 Q1023 NOSIG=

Extra information for GMFO:More info

Metar Taf Metar & Taf Last 4 Metars F.Rules Stats Wind Profile Meteogram Temp Stats Airport Information Weather charts Add Link Nearby VenuesMetar ALERT Operation Metar Decoded Social comments